sensor_id;sensor_type;location;lat;lon;timestamp;temperature;humidity
80232;DHT22;70197;42.124;24.752;2023-08-17T00:02:13;23.00;54.40
80232;DHT22;70197;42.124;24.752;2023-08-17T00:04:39;23.00;55.60
80232;DHT22;70197;42.124;24.752;2023-08-17T00:07:05;23.00;55.00
80232;DHT22;70197;42.124;24.752;2023-08-17T00:09:31;22.70;54.70
80232;DHT22;70197;42.124;24.752;2023-08-17T00:11:57;22.80;55.00
80232;DHT22;70197;42.124;24.752;2023-08-17T00:14:23;22.90;54.50
80232;DHT22;70197;42.124;24.752;2023-08-17T00:16:52;23.00;53.90
80232;DHT22;70197;42.124;24.752;2023-08-17T00:19:17;23.10;53.80
80232;DHT22;70197;42.124;24.752;2023-08-17T00:21:45;23.20;53.20
80232;DHT22;70197;42.124;24.752;2023-08-17T00:24:10;23.10;53.40
80232;DHT22;70197;42.124;24.752;2023-08-17T00:26:37;23.10;53.00
80232;DHT22;70197;42.124;24.752;2023-08-17T00:29:03;23.20;52.20
80232;DHT22;70197;42.124;24.752;2023-08-17T00:31:28;23.30;51.80
80232;DHT22;70197;42.124;24.752;2023-08-17T00:33:54;23.20;51.40
80232;DHT22;70197;42.124;24.752;2023-08-17T00:36:20;23.10;52.00
80232;DHT22;70197;42.124;24.752;2023-08-17T00:38:45;22.80;52.30
80232;DHT22;70197;42.124;24.752;2023-08-17T00:41:11;22.50;53.70
80232;DHT22;70197;42.124;24.752;2023-08-17T00:43:37;22.30;54.40
80232;DHT22;70197;42.124;24.752;2023-08-17T00:46:02;22.30;53.90
80232;DHT22;70197;42.124;24.752;2023-08-17T00:48:29;22.30;54.10
80232;DHT22;70197;42.124;24.752;2023-08-17T00:50:58;22.30;53.40
80232;DHT22;70197;42.124;24.752;2023-08-17T00:53:26;22.40;53.00
80232;DHT22;70197;42.124;24.752;2023-08-17T00:55:53;22.50;52.40
80232;DHT22;70197;42.124;24.752;2023-08-17T00:58:20;22.60;51.80
80232;DHT22;70197;42.124;24.752;2023-08-17T01:00:46;22.60;51.10
80232;DHT22;70197;42.124;24.752;2023-08-17T01:03:12;22.80;51.00
80232;DHT22;70197;42.124;24.752;2023-08-17T01:05:38;23.00;50.20
80232;DHT22;70197;42.124;24.752;2023-08-17T01:08:04;23.10;49.70
80232;DHT22;70197;42.124;24.752;2023-08-17T01:11:34;23.20;49.10
80232;DHT22;70197;42.124;24.752;2023-08-17T01:13:49;23.30;49.00
80232;DHT22;70197;42.124;24.752;2023-08-17T01:16:23;23.30;48.10
80232;DHT22;70197;42.124;24.752;2023-08-17T01:18:50;23.10;48.70
80232;DHT22;70197;42.124;24.752;2023-08-17T01:21:17;23.10;48.60
80232;DHT22;70197;42.124;24.752;2023-08-17T01:23:46;22.90;48.40
80232;DHT22;70197;42.124;24.752;2023-08-17T01:26:14;22.80;49.10
80232;DHT22;70197;42.124;24.752;2023-08-17T01:28:43;22.90;48.40
80232;DHT22;70197;42.124;24.752;2023-08-17T01:31:19;23.00;48.60
80232;DHT22;70197;42.124;24.752;2023-08-17T01:33:50;23.10;48.40
80232;DHT22;70197;42.124;24.752;2023-08-17T01:36:26;23.20;47.80
80232;DHT22;70197;42.124;24.752;2023-08-17T01:38:53;23.30;47.40
80232;DHT22;70197;42.124;24.752;2023-08-17T01:41:22;23.20;46.70
80232;DHT22;70197;42.124;24.752;2023-08-17T01:43:48;23.30;46.20
80232;DHT22;70197;42.124;24.752;2023-08-17T01:46:16;23.30;45.50
80232;DHT22;70197;42.124;24.752;2023-08-17T01:48:42;23.30;44.50
80232;DHT22;70197;42.124;24.752;2023-08-17T01:51:09;23.40;44.30
80232;DHT22;70197;42.124;24.752;2023-08-17T01:53:35;23.40;45.10
80232;DHT22;70197;42.124;24.752;2023-08-17T01:56:01;23.30;45.70
80232;DHT22;70197;42.124;24.752;2023-08-17T01:58:26;23.10;47.20
80232;DHT22;70197;42.124;24.752;2023-08-17T02:00:52;22.70;48.40
80232;DHT22;70197;42.124;24.752;2023-08-17T02:03:17;22.50;49.30
80232;DHT22;70197;42.124;24.752;2023-08-17T02:05:46;22.50;49.60
80232;DHT22;70197;42.124;24.752;2023-08-17T02:08:12;22.50;49.10
80232;DHT22;70197;42.124;24.752;2023-08-17T02:10:38;22.60;48.80
80232;DHT22;70197;42.124;24.752;2023-08-17T02:13:04;22.70;48.60
80232;DHT22;70197;42.124;24.752;2023-08-17T02:15:30;22.70;49.20
80232;DHT22;70197;42.124;24.752;2023-08-17T02:18:00;22.50;48.40
80232;DHT22;70197;42.124;24.752;2023-08-17T02:20:26;22.60;48.50
80232;DHT22;70197;42.124;24.752;2023-08-17T02:22:51;22.50;47.90
80232;DHT22;70197;42.124;24.752;2023-08-17T02:25:17;22.40;48.20
80232;DHT22;70197;42.124;24.752;2023-08-17T02:27:43;22.20;48.80
80232;DHT22;70197;42.124;24.752;2023-08-17T02:30:09;22.20;49.30
80232;DHT22;70197;42.124;24.752;2023-08-17T02:32:34;22.20;49.40
80232;DHT22;70197;42.124;24.752;2023-08-17T02:35:00;22.40;48.80
80232;DHT22;70197;42.124;24.752;2023-08-17T02:37:26;22.40;47.90
80232;DHT22;70197;42.124;24.752;2023-08-17T02:39:51;22.30;47.80
80232;DHT22;70197;42.124;24.752;2023-08-17T02:42:17;22.40;47.70
80232;DHT22;70197;42.124;24.752;2023-08-17T02:44:43;22.30;48.00
80232;DHT22;70197;42.124;24.752;2023-08-17T02:47:08;22.00;48.30
80232;DHT22;70197;42.124;24.752;2023-08-17T02:49:34;22.00;48.90
80232;DHT22;70197;42.124;24.752;2023-08-17T02:52:00;22.10;49.00
80232;DHT22;70197;42.124;24.752;2023-08-17T02:54:26;22.30;48.30
80232;DHT22;70197;42.124;24.752;2023-08-17T02:56:52;22.40;47.60
80232;DHT22;70197;42.124;24.752;2023-08-17T02:59:17;22.40;47.00
80232;DHT22;70197;42.124;24.752;2023-08-17T03:01:45;22.30;47.70
80232;DHT22;70197;42.124;24.752;2023-08-17T03:04:10;22.40;47.40
80232;DHT22;70197;42.124;24.752;2023-08-17T03:06:36;22.20;47.70
80232;DHT22;70197;42.124;24.752;2023-08-17T03:09:02;22.10;47.70
80232;DHT22;70197;42.124;24.752;2023-08-17T03:11:27;22.10;47.70
80232;DHT22;70197;42.124;24.752;2023-08-17T03:13:53;22.20;47.20
80232;DHT22;70197;42.124;24.752;2023-08-17T03:16:25;22.40;47.10
80232;DHT22;70197;42.124;24.752;2023-08-17T03:18:51;22.30;46.20
80232;DHT22;70197;42.124;24.752;2023-08-17T03:21:17;22.10;46.50
80232;DHT22;70197;42.124;24.752;2023-08-17T03:23:44;21.90;47.20
80232;DHT22;70197;42.124;24.752;2023-08-17T03:26:09;21.90;47.30
80232;DHT22;70197;42.124;24.752;2023-08-17T03:28:35;22.10;47.10
80232;DHT22;70197;42.124;24.752;2023-08-17T03:31:02;22.20;46.20
80232;DHT22;70197;42.124;24.752;2023-08-17T03:33:28;22.10;46.20
80232;DHT22;70197;42.124;24.752;2023-08-17T03:35:54;22.00;46.80
80232;DHT22;70197;42.124;24.752;2023-08-17T03:38:19;22.00;46.60
80232;DHT22;70197;42.124;24.752;2023-08-17T03:40:46;22.10;46.30
80232;DHT22;70197;42.124;24.752;2023-08-17T03:43:13;22.30;46.10
80232;DHT22;70197;42.124;24.752;2023-08-17T03:45:40;22.40;45.80
80232;DHT22;70197;42.124;24.752;2023-08-17T03:48:06;22.40;45.00
80232;DHT22;70197;42.124;24.752;2023-08-17T03:50:32;22.40;45.60
80232;DHT22;70197;42.124;24.752;2023-08-17T03:52:58;22.40;45.30
80232;DHT22;70197;42.124;24.752;2023-08-17T03:55:23;22.50;45.10
80232;DHT22;70197;42.124;24.752;2023-08-17T03:57:49;22.60;45.10
80232;DHT22;70197;42.124;24.752;2023-08-17T04:00:15;22.60;45.10
80232;DHT22;70197;42.124;24.752;2023-08-17T04:02:41;22.60;45.10
80232;DHT22;70197;42.124;24.752;2023-08-17T04:05:06;22.70;45.20
80232;DHT22;70197;42.124;24.752;2023-08-17T04:07:32;22.70;45.10
80232;DHT22;70197;42.124;24.752;2023-08-17T04:09:58;22.80;44.60
80232;DHT22;70197;42.124;24.752;2023-08-17T04:12:23;22.80;44.40
80232;DHT22;70197;42.124;24.752;2023-08-17T04:14:49;22.90;44.20
80232;DHT22;70197;42.124;24.752;2023-08-17T04:17:14;23.00;44.20
80232;DHT22;70197;42.124;24.752;2023-08-17T04:19:40;22.90;44.20
80232;DHT22;70197;42.124;24.752;2023-08-17T04:22:06;23.00;44.10
80232;DHT22;70197;42.124;24.752;2023-08-17T04:24:31;23.00;43.80
80232;DHT22;70197;42.124;24.752;2023-08-17T04:26:57;23.10;43.30
80232;DHT22;70197;42.124;24.752;2023-08-17T04:29:23;23.20;43.10
80232;DHT22;70197;42.124;24.752;2023-08-17T04:31:48;23.20;42.90
80232;DHT22;70197;42.124;24.752;2023-08-17T04:34:14;23.40;42.70
80232;DHT22;70197;42.124;24.752;2023-08-17T04:36:40;23.60;42.80
80232;DHT22;70197;42.124;24.752;2023-08-17T04:39:05;23.60;42.20
80232;DHT22;70197;42.124;24.752;2023-08-17T04:41:31;23.70;42.40
80232;DHT22;70197;42.124;24.752;2023-08-17T04:43:57;23.80;42.50
80232;DHT22;70197;42.124;24.752;2023-08-17T04:46:23;23.90;42.40
80232;DHT22;70197;42.124;24.752;2023-08-17T04:48:48;23.90;42.70
80232;DHT22;70197;42.124;24.752;2023-08-17T04:51:15;24.00;42.40
80232;DHT22;70197;42.124;24.752;2023-08-17T04:53:41;24.10;41.90
80232;DHT22;70197;42.124;24.752;2023-08-17T04:56:06;24.30;41.90
80232;DHT22;70197;42.124;24.752;2023-08-17T04:58:32;24.50;41.70
80232;DHT22;70197;42.124;24.752;2023-08-17T05:00:59;24.50;41.20
80232;DHT22;70197;42.124;24.752;2023-08-17T05:03:25;24.60;41.50
80232;DHT22;70197;42.124;24.752;2023-08-17T05:05:52;24.70;41.50
80232;DHT22;70197;42.124;24.752;2023-08-17T05:08:18;24.80;41.40
80232;DHT22;70197;42.124;24.752;2023-08-17T05:10:44;24.90;41.20
80232;DHT22;70197;42.124;24.752;2023-08-17T05:13:10;25.00;40.90
80232;DHT22;70197;42.124;24.752;2023-08-17T05:15:35;25.00;40.60
80232;DHT22;70197;42.124;24.752;2023-08-17T05:18:01;25.20;40.60
80232;DHT22;70197;42.124;24.752;2023-08-17T05:20:26;25.40;40.20
80232;DHT22;70197;42.124;24.752;2023-08-17T05:22:52;25.60;40.10
80232;DHT22;70197;42.124;24.752;2023-08-17T05:25:18;25.60;39.40
80232;DHT22;70197;42.124;24.752;2023-08-17T05:27:43;25.70;39.10
80232;DHT22;70197;42.124;24.752;2023-08-17T05:30:09;25.80;39.30
80232;DHT22;70197;42.124;24.752;2023-08-17T05:32:35;26.00;39.00
80232;DHT22;70197;42.124;24.752;2023-08-17T05:35:00;26.10;38.70
80232;DHT22;70197;42.124;24.752;2023-08-17T05:37:26;26.30;37.80
80232;DHT22;70197;42.124;24.752;2023-08-17T05:39:52;26.60;38.00
80232;DHT22;70197;42.124;24.752;2023-08-17T05:42:17;26.80;37.80
80232;DHT22;70197;42.124;24.752;2023-08-17T05:44:43;27.00;37.60
80232;DHT22;70197;42.124;24.752;2023-08-17T05:47:09;27.20;37.60
80232;DHT22;70197;42.124;24.752;2023-08-17T05:49:35;27.20;36.80
80232;DHT22;70197;42.124;24.752;2023-08-17T05:52:01;27.40;36.30
80232;DHT22;70197;42.124;24.752;2023-08-17T05:54:26;27.40;36.10
80232;DHT22;70197;42.124;24.752;2023-08-17T05:56:52;27.50;36.40
80232;DHT22;70197;42.124;24.752;2023-08-17T05:59:18;27.70;37.80
80232;DHT22;70197;42.124;24.752;2023-08-17T06:01:43;27.70;36.30
80232;DHT22;70197;42.124;24.752;2023-08-17T06:04:09;27.60;35.30
80232;DHT22;70197;42.124;24.752;2023-08-17T06:06:34;27.40;35.60
80232;DHT22;70197;42.124;24.752;2023-08-17T06:09:00;27.30;36.60
80232;DHT22;70197;42.124;24.752;2023-08-17T06:11:26;26.90;37.00
80232;DHT22;70197;42.124;24.752;2023-08-17T06:13:51;27.20;37.70
80232;DHT22;70197;42.124;24.752;2023-08-17T06:16:17;27.60;37.30
80232;DHT22;70197;42.124;24.752;2023-08-17T06:18:42;28.00;36.70
80232;DHT22;70197;42.124;24.752;2023-08-17T06:21:08;27.90;36.40
80232;DHT22;70197;42.124;24.752;2023-08-17T06:23:34;28.50;36.40
80232;DHT22;70197;42.124;24.752;2023-08-17T06:26:00;28.70;35.90
80232;DHT22;70197;42.124;24.752;2023-08-17T06:28:26;28.20;36.40
80232;DHT22;70197;42.124;24.752;2023-08-17T06:30:53;28.40;36.70
80232;DHT22;70197;42.124;24.752;2023-08-17T06:33:20;28.50;37.10
80232;DHT22;70197;42.124;24.752;2023-08-17T06:35:45;28.90;37.20
80232;DHT22;70197;42.124;24.752;2023-08-17T06:38:11;29.20;36.80
80232;DHT22;70197;42.124;24.752;2023-08-17T06:40:37;29.30;35.80
80232;DHT22;70197;42.124;24.752;2023-08-17T06:43:03;29.30;35.70
80232;DHT22;70197;42.124;24.752;2023-08-17T06:45:30;29.30;35.00
80232;DHT22;70197;42.124;24.752;2023-08-17T06:47:56;29.50;35.40
80232;DHT22;70197;42.124;24.752;2023-08-17T06:50:22;29.40;35.40
80232;DHT22;70197;42.124;24.752;2023-08-17T06:52:47;29.60;35.80
80232;DHT22;70197;42.124;24.752;2023-08-17T06:55:13;29.80;35.10
80232;DHT22;70197;42.124;24.752;2023-08-17T06:57:40;30.10;34.30
80232;DHT22;70197;42.124;24.752;2023-08-17T07:00:06;29.90;33.40
80232;DHT22;70197;42.124;24.752;2023-08-17T07:02:32;29.30;34.70
80232;DHT22;70197;42.124;24.752;2023-08-17T07:04:58;29.30;33.80
80232;DHT22;70197;42.124;24.752;2023-08-17T07:07:24;29.20;35.20
80232;DHT22;70197;42.124;24.752;2023-08-17T07:09:49;29.60;35.40
80232;DHT22;70197;42.124;24.752;2023-08-17T07:12:15;29.70;34.40
80232;DHT22;70197;42.124;24.752;2023-08-17T07:14:40;29.60;33.20
80232;DHT22;70197;42.124;24.752;2023-08-17T07:17:06;29.80;32.70
80232;DHT22;70197;42.124;24.752;2023-08-17T07:19:32;29.70;32.90
80232;DHT22;70197;42.124;24.752;2023-08-17T07:21:57;29.60;34.30
80232;DHT22;70197;42.124;24.752;2023-08-17T07:24:23;29.80;33.70
80232;DHT22;70197;42.124;24.752;2023-08-17T07:26:49;29.70;32.70
80232;DHT22;70197;42.124;24.752;2023-08-17T07:29:14;30.10;32.90
80232;DHT22;70197;42.124;24.752;2023-08-17T07:31:40;30.20;32.50
80232;DHT22;70197;42.124;24.752;2023-08-17T07:34:06;30.40;31.70
80232;DHT22;70197;42.124;24.752;2023-08-17T07:36:32;30.40;31.40
80232;DHT22;70197;42.124;24.752;2023-08-17T07:38:59;30.70;31.30
80232;DHT22;70197;42.124;24.752;2023-08-17T07:41:25;30.90;30.00
80232;DHT22;70197;42.124;24.752;2023-08-17T07:43:51;30.90;29.50
80232;DHT22;70197;42.124;24.752;2023-08-17T07:46:17;31.20;29.50
80232;DHT22;70197;42.124;24.752;2023-08-17T07:48:43;31.30;29.00
80232;DHT22;70197;42.124;24.752;2023-08-17T07:51:08;31.60;28.80
80232;DHT22;70197;42.124;24.752;2023-08-17T07:53:34;31.90;28.70
80232;DHT22;70197;42.124;24.752;2023-08-17T07:56:00;31.90;28.90
80232;DHT22;70197;42.124;24.752;2023-08-17T07:58:25;31.70;29.60
80232;DHT22;70197;42.124;24.752;2023-08-17T08:00:51;32.00;29.20
80232;DHT22;70197;42.124;24.752;2023-08-17T08:03:17;32.60;28.50
80232;DHT22;70197;42.124;24.752;2023-08-17T08:05:42;33.20;28.10
80232;DHT22;70197;42.124;24.752;2023-08-17T08:08:08;33.30;28.50
80232;DHT22;70197;42.124;24.752;2023-08-17T08:10:33;34.30;27.80
80232;DHT22;70197;42.124;24.752;2023-08-17T08:12:59;35.00;26.20
80232;DHT22;70197;42.124;24.752;2023-08-17T08:15:25;36.40;25.00
80232;DHT22;70197;42.124;24.752;2023-08-17T08:17:50;38.70;22.70
80232;DHT22;70197;42.124;24.752;2023-08-17T08:20:16;40.40;21.30
80232;DHT22;70197;42.124;24.752;2023-08-17T08:22:42;43.00;19.30
80232;DHT22;70197;42.124;24.752;2023-08-17T08:25:08;43.80;17.80
80232;DHT22;70197;42.124;24.752;2023-08-17T08:27:33;44.40;17.30
80232;DHT22;70197;42.124;24.752;2023-08-17T08:29:59;45.50;16.70
80232;DHT22;70197;42.124;24.752;2023-08-17T08:32:24;46.80;15.80
80232;DHT22;70197;42.124;24.752;2023-08-17T08:34:50;48.40;14.70
80232;DHT22;70197;42.124;24.752;2023-08-17T08:37:16;48.50;14.20
80232;DHT22;70197;42.124;24.752;2023-08-17T08:39:52;50.50;13.50
80232;DHT22;70197;42.124;24.752;2023-08-17T08:42:19;51.90;12.50
80232;DHT22;70197;42.124;24.752;2023-08-17T08:44:45;53.30;11.50
80232;DHT22;70197;42.124;24.752;2023-08-17T08:47:14;53.00;11.00
80232;DHT22;70197;42.124;24.752;2023-08-17T08:49:59;52.80;11.40
80232;DHT22;70197;42.124;24.752;2023-08-17T08:52:35;53.70;11.00
80232;DHT22;70197;42.124;24.752;2023-08-17T08:55:12;53.90;10.50
80232;DHT22;70197;42.124;24.752;2023-08-17T08:57:41;52.90;10.80
80232;DHT22;70197;42.124;24.752;2023-08-17T09:00:08;52.70;11.10
80232;DHT22;70197;42.124;24.752;2023-08-17T09:02:35;51.00;11.30
80232;DHT22;70197;42.124;24.752;2023-08-17T09:05:02;52.10;11.40
80232;DHT22;70197;42.124;24.752;2023-08-17T09:07:31;53.20;10.80
80232;DHT22;70197;42.124;24.752;2023-08-17T09:09:58;52.20;10.90
80232;DHT22;70197;42.124;24.752;2023-08-17T09:12:24;53.50;10.40
80232;DHT22;70197;42.124;24.752;2023-08-17T09:14:50;51.10;11.00
80232;DHT22;70197;42.124;24.752;2023-08-17T09:17:26;53.10;10.80
80232;DHT22;70197;42.124;24.752;2023-08-17T09:19:52;53.60;10.30
80232;DHT22;70197;42.124;24.752;2023-08-17T09:22:25;53.30;10.30
80232;DHT22;70197;42.124;24.752;2023-08-17T09:24:51;52.20;10.20
80232;DHT22;70197;42.124;24.752;2023-08-17T09:27:17;53.30;10.50
80232;DHT22;70197;42.124;24.752;2023-08-17T09:29:43;54.70;9.90
80232;DHT22;70197;42.124;24.752;2023-08-17T09:32:11;55.70;9.10
80232;DHT22;70197;42.124;24.752;2023-08-17T09:34:37;55.50;9.00
80232;DHT22;70197;42.124;24.752;2023-08-17T09:37:03;53.70;9.50
80232;DHT22;70197;42.124;24.752;2023-08-17T09:39:30;53.20;9.80
80232;DHT22;70197;42.124;24.752;2023-08-17T09:41:56;51.90;10.50
80232;DHT22;70197;42.124;24.752;2023-08-17T09:44:22;51.20;11.10
80232;DHT22;70197;42.124;24.752;2023-08-17T09:46:49;49.00;12.40
80232;DHT22;70197;42.124;24.752;2023-08-17T09:49:14;48.70;12.60
80232;DHT22;70197;42.124;24.752;2023-08-17T09:51:44;47.20;12.60
80232;DHT22;70197;42.124;24.752;2023-08-17T09:54:21;45.50;13.20
80232;DHT22;70197;42.124;24.752;2023-08-17T09:56:52;43.10;14.90
80232;DHT22;70197;42.124;24.752;2023-08-17T09:59:18;42.30;15.80
80232;DHT22;70197;42.124;24.752;2023-08-17T10:01:47;42.00;16.50
80232;DHT22;70197;42.124;24.752;2023-08-17T10:04:15;41.30;15.90
80232;DHT22;70197;42.124;24.752;2023-08-17T10:06:41;40.70;17.20
80232;DHT22;70197;42.124;24.752;2023-08-17T10:09:09;39.90;17.50
80232;DHT22;70197;42.124;24.752;2023-08-17T10:11:38;39.40;17.70
80232;DHT22;70197;42.124;24.752;2023-08-17T10:14:11;39.10;18.10
80232;DHT22;70197;42.124;24.752;2023-08-17T10:16:44;38.90;18.20
80232;DHT22;70197;42.124;24.752;2023-08-17T10:19:37;38.70;18.60
80232;DHT22;70197;42.124;24.752;2023-08-17T10:22:16;38.50;19.30
80232;DHT22;70197;42.124;24.752;2023-08-17T10:24:44;38.40;18.90
80232;DHT22;70197;42.124;24.752;2023-08-17T10:27:10;38.00;20.00
80232;DHT22;70197;42.124;24.752;2023-08-17T10:29:38;37.50;19.70
80232;DHT22;70197;42.124;24.752;2023-08-17T10:32:05;37.20;20.30
80232;DHT22;70197;42.124;24.752;2023-08-17T10:34:33;37.10;20.60
80232;DHT22;70197;42.124;24.752;2023-08-17T10:37:00;36.60;20.70
80232;DHT22;70197;42.124;24.752;2023-08-17T10:39:28;36.20;20.70
80232;DHT22;70197;42.124;24.752;2023-08-17T10:41:54;35.70;21.20
80232;DHT22;70197;42.124;24.752;2023-08-17T10:44:40;35.30;21.20
80232;DHT22;70197;42.124;24.752;2023-08-17T10:47:26;34.50;22.10
80232;DHT22;70197;42.124;24.752;2023-08-17T10:49:56;33.70;22.60
80232;DHT22;70197;42.124;24.752;2023-08-17T10:52:31;33.40;23.20
80232;DHT22;70197;42.124;24.752;2023-08-17T10:55:03;33.50;23.60
80232;DHT22;70197;42.124;24.752;2023-08-17T10:57:40;32.90;23.30
80232;DHT22;70197;42.124;24.752;2023-08-17T11:02:56;33.20;23.40
80232;DHT22;70197;42.124;24.752;2023-08-17T11:08:03;32.70;23.90
80232;DHT22;70197;42.124;24.752;2023-08-17T11:10:29;32.80;24.30
80232;DHT22;70197;42.124;24.752;2023-08-17T11:12:56;32.40;24.20
80232;DHT22;70197;42.124;24.752;2023-08-17T11:15:45;32.00;24.50
80232;DHT22;70197;42.124;24.752;2023-08-17T11:18:13;32.10;24.80
80232;DHT22;70197;42.124;24.752;2023-08-17T11:20:41;32.10;25.40
80232;DHT22;70197;42.124;24.752;2023-08-17T11:23:08;32.20;25.10
80232;DHT22;70197;42.124;24.752;2023-08-17T11:25:34;32.40;24.90
80232;DHT22;70197;42.124;24.752;2023-08-17T11:28:00;31.90;24.70
80232;DHT22;70197;42.124;24.752;2023-08-17T11:30:27;31.90;25.20
80232;DHT22;70197;42.124;24.752;2023-08-17T11:32:54;32.10;25.60
80232;DHT22;70197;42.124;24.752;2023-08-17T11:35:21;32.10;25.40
80232;DHT22;70197;42.124;24.752;2023-08-17T11:37:48;32.20;24.60
80232;DHT22;70197;42.124;24.752;2023-08-17T11:40:14;32.30;25.20
80232;DHT22;70197;42.124;24.752;2023-08-17T11:42:41;32.20;24.70
80232;DHT22;70197;42.124;24.752;2023-08-17T11:45:07;32.30;24.80
80232;DHT22;70197;42.124;24.752;2023-08-17T11:47:35;32.20;26.90
80232;DHT22;70197;42.124;24.752;2023-08-17T11:50:05;31.90;27.50
80232;DHT22;70197;42.124;24.752;2023-08-17T11:52:31;31.70;27.90
80232;DHT22;70197;42.124;24.752;2023-08-17T11:55:02;31.90;27.80
80232;DHT22;70197;42.124;24.752;2023-08-17T11:57:31;32.10;27.40
80232;DHT22;70197;42.124;24.752;2023-08-17T11:59:57;31.90;27.80
80232;DHT22;70197;42.124;24.752;2023-08-17T12:02:23;31.50;28.10
80232;DHT22;70197;42.124;24.752;2023-08-17T12:04:50;31.60;28.80
80232;DHT22;70197;42.124;24.752;2023-08-17T12:07:16;31.40;28.40
80232;DHT22;70197;42.124;24.752;2023-08-17T12:09:43;31.50;28.40
80232;DHT22;70197;42.124;24.752;2023-08-17T12:12:10;31.30;28.40
80232;DHT22;70197;42.124;24.752;2023-08-17T12:14:36;31.40;28.50
80232;DHT22;70197;42.124;24.752;2023-08-17T12:17:02;31.60;28.70
80232;DHT22;70197;42.124;24.752;2023-08-17T12:19:29;31.90;27.70
80232;DHT22;70197;42.124;24.752;2023-08-17T12:21:55;32.00;27.40
80232;DHT22;70197;42.124;24.752;2023-08-17T12:24:24;32.00;28.00
80232;DHT22;70197;42.124;24.752;2023-08-17T12:26:50;31.80;28.30
80232;DHT22;70197;42.124;24.752;2023-08-17T12:29:15;31.50;29.00
80232;DHT22;70197;42.124;24.752;2023-08-17T12:31:41;31.60;29.10
80232;DHT22;70197;42.124;24.752;2023-08-17T12:34:06;31.60;28.40
80232;DHT22;70197;42.124;24.752;2023-08-17T12:36:34;31.40;28.90
80232;DHT22;70197;42.124;24.752;2023-08-17T12:39:00;31.30;29.20
80232;DHT22;70197;42.124;24.752;2023-08-17T12:41:26;31.30;29.30
80232;DHT22;70197;42.124;24.752;2023-08-17T12:43:52;31.10;29.70
80232;DHT22;70197;42.124;24.752;2023-08-17T12:46:24;31.00;29.80
80232;DHT22;70197;42.124;24.752;2023-08-17T12:48:50;31.10;29.50
80232;DHT22;70197;42.124;24.752;2023-08-17T12:51:15;31.20;29.80
80232;DHT22;70197;42.124;24.752;2023-08-17T12:53:41;31.40;29.10
80232;DHT22;70197;42.124;24.752;2023-08-17T12:56:08;31.30;29.60
80232;DHT22;70197;42.124;24.752;2023-08-17T12:58:34;31.30;29.70
80232;DHT22;70197;42.124;24.752;2023-08-17T13:00:59;31.30;29.20
80232;DHT22;70197;42.124;24.752;2023-08-17T13:03:25;31.30;30.00
80232;DHT22;70197;42.124;24.752;2023-08-17T13:05:50;31.40;30.00
80232;DHT22;70197;42.124;24.752;2023-08-17T13:08:16;31.40;29.80
80232;DHT22;70197;42.124;24.752;2023-08-17T13:10:42;31.40;30.30
80232;DHT22;70197;42.124;24.752;2023-08-17T13:13:08;31.30;30.00
80232;DHT22;70197;42.124;24.752;2023-08-17T13:15:33;31.30;30.50
80232;DHT22;70197;42.124;24.752;2023-08-17T13:17:59;31.20;31.00
80232;DHT22;70197;42.124;24.752;2023-08-17T13:20:25;31.00;31.10
80232;DHT22;70197;42.124;24.752;2023-08-17T13:22:51;31.10;31.60
80232;DHT22;70197;42.124;24.752;2023-08-17T13:25:17;31.10;31.60
80232;DHT22;70197;42.124;24.752;2023-08-17T13:27:42;31.20;31.10
80232;DHT22;70197;42.124;24.752;2023-08-17T13:30:08;31.30;31.20
80232;DHT22;70197;42.124;24.752;2023-08-17T13:32:34;31.40;30.70
80232;DHT22;70197;42.124;24.752;2023-08-17T13:35:01;31.20;30.90
80232;DHT22;70197;42.124;24.752;2023-08-17T13:37:27;31.40;30.50
80232;DHT22;70197;42.124;24.752;2023-08-17T13:39:53;31.40;31.10
80232;DHT22;70197;42.124;24.752;2023-08-17T13:42:19;31.50;31.20
80232;DHT22;70197;42.124;24.752;2023-08-17T13:44:45;31.60;31.00
80232;DHT22;70197;42.124;24.752;2023-08-17T13:47:11;31.30;31.50
80232;DHT22;70197;42.124;24.752;2023-08-17T13:49:37;31.00;32.10
80232;DHT22;70197;42.124;24.752;2023-08-17T13:52:03;31.10;32.50
80232;DHT22;70197;42.124;24.752;2023-08-17T13:54:29;31.30;32.30
80232;DHT22;70197;42.124;24.752;2023-08-17T13:56:55;31.20;31.50
80232;DHT22;70197;42.124;24.752;2023-08-17T13:59:21;31.30;31.80
80232;DHT22;70197;42.124;24.752;2023-08-17T14:01:47;31.40;31.50
80232;DHT22;70197;42.124;24.752;2023-08-17T14:04:13;31.50;31.60
80232;DHT22;70197;42.124;24.752;2023-08-17T14:06:40;31.50;31.50
80232;DHT22;70197;42.124;24.752;2023-08-17T14:09:06;31.60;31.20
80232;DHT22;70197;42.124;24.752;2023-08-17T14:11:32;31.50;31.80
80232;DHT22;70197;42.124;24.752;2023-08-17T14:13:58;31.20;31.60
80232;DHT22;70197;42.124;24.752;2023-08-17T14:16:23;30.60;32.60
80232;DHT22;70197;42.124;24.752;2023-08-17T14:18:49;30.30;32.90
80232;DHT22;70197;42.124;24.752;2023-08-17T14:21:15;30.30;33.10
80232;DHT22;70197;42.124;24.752;2023-08-17T14:23:41;30.10;33.30
80232;DHT22;70197;42.124;24.752;2023-08-17T14:26:07;30.10;33.20
80232;DHT22;70197;42.124;24.752;2023-08-17T14:28:33;30.30;33.20
80232;DHT22;70197;42.124;24.752;2023-08-17T14:30:59;30.40;32.80
80232;DHT22;70197;42.124;24.752;2023-08-17T14:33:24;30.40;33.10
80232;DHT22;70197;42.124;24.752;2023-08-17T14:35:50;30.40;34.00
80232;DHT22;70197;42.124;24.752;2023-08-17T14:38:16;30.40;33.00
80232;DHT22;70197;42.124;24.752;2023-08-17T14:40:46;30.50;32.70
80232;DHT22;70197;42.124;24.752;2023-08-17T14:43:12;30.40;33.30
80232;DHT22;70197;42.124;24.752;2023-08-17T14:45:42;30.40;33.40
80232;DHT22;70197;42.124;24.752;2023-08-17T14:48:08;30.50;33.30
80232;DHT22;70197;42.124;24.752;2023-08-17T14:50:54;30.60;32.90
80232;DHT22;70197;42.124;24.752;2023-08-17T14:53:20;30.40;32.70
80232;DHT22;70197;42.124;24.752;2023-08-17T14:55:46;30.30;32.90
80232;DHT22;70197;42.124;24.752;2023-08-17T14:58:11;30.30;33.10
80232;DHT22;70197;42.124;24.752;2023-08-17T15:00:37;30.50;32.90
80232;DHT22;70197;42.124;24.752;2023-08-17T15:03:03;30.50;32.40
80232;DHT22;70197;42.124;24.752;2023-08-17T15:05:29;30.60;32.00
80232;DHT22;70197;42.124;24.752;2023-08-17T15:07:56;30.50;31.90
